sensor_id;sensor_type;location;lat;lon;timestamp;P1;durP1;ratioP1;P2;durP2;ratioP2
65275;SDS011;51875;49.994;14.052;2023-11-21T00:00:21;3.50;;;1.75;;
65275;SDS011;51875;49.994;14.052;2023-11-21T00:01:57;4.53;;;1.65;;
65275;SDS011;51875;49.994;14.052;2023-11-21T00:03:13;3.80;;;1.45;;
65275;SDS011;51875;49.994;14.052;2023-11-21T00:04:30;4.18;;;1.60;;
65275;SDS011;51875;49.994;14.052;2023-11-21T00:05:46;4.38;;;1.80;;
65275;SDS011;51875;49.994;14.052;2023-11-21T00:07:01;3.50;;;1.92;;
65275;SDS011;51875;49.994;14.052;2023-11-21T00:08:17;3.97;;;1.67;;
65275;SDS011;51875;49.994;14.052;2023-11-21T00:09:32;2.95;;;1.70;;
65275;SDS011;51875;49.994;14.052;2023-11-21T00:10:48;6.15;;;1.95;;
65275;SDS011;51875;49.994;14.052;2023-11-21T00:12:04;3.35;;;1.48;;
65275;SDS011;51875;49.994;14.052;2023-11-21T00:13:20;4.43;;;1.80;;
65275;SDS011;51875;49.994;14.052;2023-11-21T00:14:36;3.67;;;1.55;;
65275;SDS011;51875;49.994;14.052;2023-11-21T00:15:53;2.45;;;1.80;;
65275;SDS011;51875;49.994;14.052;2023-11-21T00:17:09;1.90;;;1.40;;
65275;SDS011;51875;49.994;14.052;2023-11-21T00:18:25;2.90;;;1.63;;
65275;SDS011;51875;49.994;14.052;2023-11-21T00:19:40;3.40;;;1.73;;
65275;SDS011;51875;49.994;14.052;2023-11-21T00:20:57;3.28;;;1.60;;
65275;SDS011;51875;49.994;14.052;2023-11-21T00:22:14;3.83;;;1.80;;
65275;SDS011;51875;49.994;14.052;2023-11-21T00:23:31;2.97;;;1.60;;
65275;SDS011;51875;49.994;14.052;2023-11-21T00:24:46;2.20;;;1.80;;
65275;SDS011;51875;49.994;14.052;2023-11-21T00:26:03;4.55;;;1.80;;
65275;SDS011;51875;49.994;14.052;2023-11-21T00:27:19;2.78;;;1.80;;
65275;SDS011;51875;49.994;14.052;2023-11-21T00:28:35;4.35;;;1.80;;
65275;SDS011;51875;49.994;14.052;2023-11-21T00:29:51;2.72;;;1.60;;
65275;SDS011;51875;49.994;14.052;2023-11-21T00:31:07;3.80;;;1.65;;
65275;SDS011;51875;49.994;14.052;2023-11-21T00:32:23;3.92;;;2.30;;
65275;SDS011;51875;49.994;14.052;2023-11-21T00:33:39;3.70;;;1.92;;
65275;SDS011;51875;49.994;14.052;2023-11-21T00:34:54;3.17;;;1.75;;
65275;SDS011;51875;49.994;14.052;2023-11-21T00:36:10;2.53;;;1.60;;
65275;SDS011;51875;49.994;14.052;2023-11-21T00:37:26;3.33;;;1.75;;
65275;SDS011;51875;49.994;14.052;2023-11-21T00:38:42;3.67;;;2.00;;
65275;SDS011;51875;49.994;14.052;2023-11-21T00:39:57;4.72;;;1.90;;
65275;SDS011;51875;49.994;14.052;2023-11-21T00:41:13;3.83;;;2.03;;
65275;SDS011;51875;49.994;14.052;2023-11-21T00:42:29;3.63;;;2.00;;
65275;SDS011;51875;49.994;14.052;2023-11-21T00:43:45;3.03;;;2.00;;
65275;SDS011;51875;49.994;14.052;2023-11-21T00:45:01;3.10;;;1.90;;
65275;SDS011;51875;49.994;14.052;2023-11-21T00:46:17;5.25;;;2.08;;
65275;SDS011;51875;49.994;14.052;2023-11-21T00:47:32;5.22;;;1.90;;
65275;SDS011;51875;49.994;14.052;2023-11-21T00:48:48;4.80;;;1.90;;
65275;SDS011;51875;49.994;14.052;2023-11-21T00:50:04;4.10;;;1.80;;
65275;SDS011;51875;49.994;14.052;2023-11-21T00:51:21;3.50;;;2.00;;
65275;SDS011;51875;49.994;14.052;2023-11-21T00:52:37;3.38;;;1.90;;
65275;SDS011;51875;49.994;14.052;2023-11-21T00:53:53;4.28;;;2.10;;
65275;SDS011;51875;49.994;14.052;2023-11-21T00:55:08;5.63;;;1.80;;
65275;SDS011;51875;49.994;14.052;2023-11-21T00:56:25;3.47;;;1.80;;
65275;SDS011;51875;49.994;14.052;2023-11-21T00:57:41;3.08;;;1.80;;
65275;SDS011;51875;49.994;14.052;2023-11-21T00:58:57;3.97;;;1.80;;
65275;SDS011;51875;49.994;14.052;2023-11-21T01:00:13;2.08;;;1.80;;
65275;SDS011;51875;49.994;14.052;2023-11-21T01:01:32;3.83;;;1.83;;
65275;SDS011;51875;49.994;14.052;2023-11-21T01:02:48;3.15;;;1.60;;
65275;SDS011;51875;49.994;14.052;2023-11-21T01:04:03;4.47;;;1.92;;
65275;SDS011;51875;49.994;14.052;2023-11-21T01:05:20;2.15;;;1.40;;
65275;SDS011;51875;49.994;14.052;2023-11-21T01:06:36;5.68;;;2.03;;
65275;SDS011;51875;49.994;14.052;2023-11-21T01:07:54;4.05;;;2.00;;
65275;SDS011;51875;49.994;14.052;2023-11-21T01:09:11;4.13;;;1.80;;
65275;SDS011;51875;49.994;14.052;2023-11-21T01:10:27;4.70;;;2.20;;
65275;SDS011;51875;49.994;14.052;2023-11-21T01:11:43;4.97;;;2.08;;
65275;SDS011;51875;49.994;14.052;2023-11-21T01:12:59;4.75;;;1.90;;
65275;SDS011;51875;49.994;14.052;2023-11-21T01:14:15;4.10;;;2.15;;
65275;SDS011;51875;49.994;14.052;2023-11-21T01:15:33;3.95;;;1.70;;
65275;SDS011;51875;49.994;14.052;2023-11-21T01:16:49;5.80;;;1.90;;
65275;SDS011;51875;49.994;14.052;2023-11-21T01:18:05;4.95;;;2.20;;
65275;SDS011;51875;49.994;14.052;2023-11-21T01:19:21;2.92;;;2.00;;
65275;SDS011;51875;49.994;14.052;2023-11-21T01:20:37;3.20;;;1.70;;
65275;SDS011;51875;49.994;14.052;2023-11-21T01:21:53;4.60;;;1.80;;
65275;SDS011;51875;49.994;14.052;2023-11-21T01:23:08;4.85;;;1.90;;
65275;SDS011;51875;49.994;14.052;2023-11-21T01:24:24;3.03;;;1.95;;
65275;SDS011;51875;49.994;14.052;2023-11-21T01:25:40;4.13;;;2.00;;
65275;SDS011;51875;49.994;14.052;2023-11-21T01:26:55;6.10;;;1.98;;
65275;SDS011;51875;49.994;14.052;2023-11-21T01:28:11;3.67;;;2.30;;
65275;SDS011;51875;49.994;14.052;2023-11-21T01:29:27;4.53;;;2.20;;
65275;SDS011;51875;49.994;14.052;2023-11-21T01:30:43;5.03;;;2.17;;
65275;SDS011;51875;49.994;14.052;2023-11-21T01:32:00;5.03;;;1.90;;
65275;SDS011;51875;49.994;14.052;2023-11-21T01:33:17;4.45;;;2.40;;
65275;SDS011;51875;49.994;14.052;2023-11-21T01:34:33;3.13;;;1.90;;
65275;SDS011;51875;49.994;14.052;2023-11-21T01:35:49;4.38;;;1.83;;
65275;SDS011;51875;49.994;14.052;2023-11-21T01:37:08;6.43;;;1.90;;
65275;SDS011;51875;49.994;14.052;2023-11-21T01:38:27;3.97;;;1.80;;
65275;SDS011;51875;49.994;14.052;2023-11-21T01:39:43;3.88;;;1.73;;
65275;SDS011;51875;49.994;14.052;2023-11-21T01:40:59;1.95;;;1.55;;
65275;SDS011;51875;49.994;14.052;2023-11-21T01:42:16;3.58;;;1.50;;
65275;SDS011;51875;49.994;14.052;2023-11-21T01:43:31;3.85;;;1.90;;
65275;SDS011;51875;49.994;14.052;2023-11-21T01:44:47;4.80;;;1.70;;
65275;SDS011;51875;49.994;14.052;2023-11-21T01:46:03;1.90;;;1.45;;
65275;SDS011;51875;49.994;14.052;2023-11-21T01:47:21;3.83;;;1.80;;
65275;SDS011;51875;49.994;14.052;2023-11-21T01:48:37;4.15;;;1.70;;
65275;SDS011;51875;49.994;14.052;2023-11-21T01:49:53;3.72;;;1.70;;
65275;SDS011;51875;49.994;14.052;2023-11-21T01:51:09;4.20;;;1.67;;
65275;SDS011;51875;49.994;14.052;2023-11-21T01:52:25;3.10;;;1.60;;
65275;SDS011;51875;49.994;14.052;2023-11-21T01:53:41;2.90;;;1.60;;
65275;SDS011;51875;49.994;14.052;2023-11-21T01:54:57;1.92;;;1.38;;
65275;SDS011;51875;49.994;14.052;2023-11-21T01:56:14;4.10;;;1.75;;
65275;SDS011;51875;49.994;14.052;2023-11-21T01:57:30;3.60;;;2.08;;
65275;SDS011;51875;49.994;14.052;2023-11-21T01:58:46;4.10;;;1.58;;
65275;SDS011;51875;49.994;14.052;2023-11-21T02:00:02;1.92;;;1.48;;
65275;SDS011;51875;49.994;14.052;2023-11-21T02:01:30;2.67;;;1.98;;
65275;SDS011;51875;49.994;14.052;2023-11-21T02:02:46;3.28;;;1.65;;
65275;SDS011;51875;49.994;14.052;2023-11-21T02:04:03;4.45;;;1.80;;
65275;SDS011;51875;49.994;14.052;2023-11-21T02:05:18;2.35;;;1.55;;
65275;SDS011;51875;49.994;14.052;2023-11-21T02:06:35;5.03;;;2.00;;
65275;SDS011;51875;49.994;14.052;2023-11-21T02:07:51;3.17;;;1.75;;
65275;SDS011;51875;49.994;14.052;2023-11-21T02:09:07;4.63;;;2.05;;
65275;SDS011;51875;49.994;14.052;2023-11-21T02:10:24;3.42;;;1.77;;
65275;SDS011;51875;49.994;14.052;2023-11-21T02:11:40;4.20;;;2.28;;
65275;SDS011;51875;49.994;14.052;2023-11-21T02:12:55;4.50;;;1.83;;
65275;SDS011;51875;49.994;14.052;2023-11-21T02:14:12;3.53;;;1.88;;
65275;SDS011;51875;49.994;14.052;2023-11-21T02:15:29;4.25;;;2.00;;
65275;SDS011;51875;49.994;14.052;2023-11-21T02:16:45;4.22;;;2.00;;
65275;SDS011;51875;49.994;14.052;2023-11-21T02:18:02;4.30;;;1.83;;
65275;SDS011;51875;49.994;14.052;2023-11-21T02:19:19;4.78;;;1.80;;
65275;SDS011;51875;49.994;14.052;2023-11-21T02:20:38;3.70;;;1.88;;
65275;SDS011;51875;49.994;14.052;2023-11-21T02:21:57;4.78;;;2.10;;
65275;SDS011;51875;49.994;14.052;2023-11-21T02:23:16;3.28;;;1.90;;
65275;SDS011;51875;49.994;14.052;2023-11-21T02:24:33;2.20;;;1.80;;
65275;SDS011;51875;49.994;14.052;2023-11-21T02:25:48;3.88;;;2.00;;
65275;SDS011;51875;49.994;14.052;2023-11-21T02:27:04;5.13;;;2.38;;
65275;SDS011;51875;49.994;14.052;2023-11-21T02:28:21;4.28;;;2.10;;
65275;SDS011;51875;49.994;14.052;2023-11-21T02:29:40;3.33;;;1.92;;
65275;SDS011;51875;49.994;14.052;2023-11-21T02:30:56;5.93;;;2.45;;
65275;SDS011;51875;49.994;14.052;2023-11-21T02:32:13;6.03;;;2.38;;
65275;SDS011;51875;49.994;14.052;2023-11-21T02:33:29;3.25;;;1.88;;
65275;SDS011;51875;49.994;14.052;2023-11-21T02:34:45;4.25;;;1.80;;
65275;SDS011;51875;49.994;14.052;2023-11-21T02:36:01;5.32;;;2.63;;
65275;SDS011;51875;49.994;14.052;2023-11-21T02:37:18;4.93;;;2.13;;
65275;SDS011;51875;49.994;14.052;2023-11-21T02:38:33;3.67;;;2.08;;
65275;SDS011;51875;49.994;14.052;2023-11-21T02:39:49;4.80;;;2.00;;
65275;SDS011;51875;49.994;14.052;2023-11-21T02:41:04;4.05;;;1.90;;
65275;SDS011;51875;49.994;14.052;2023-11-21T02:42:20;4.40;;;2.10;;
65275;SDS011;51875;49.994;14.052;2023-11-21T02:43:36;2.72;;;1.80;;
65275;SDS011;51875;49.994;14.052;2023-11-21T02:44:53;3.15;;;1.65;;
65275;SDS011;51875;49.994;14.052;2023-11-21T02:46:09;2.75;;;1.80;;
65275;SDS011;51875;49.994;14.052;2023-11-21T02:47:25;9.32;;;2.20;;
65275;SDS011;51875;49.994;14.052;2023-11-21T02:48:40;3.72;;;2.00;;
65275;SDS011;51875;49.994;14.052;2023-11-21T02:49:56;4.57;;;2.13;;
65275;SDS011;51875;49.994;14.052;2023-11-21T02:51:11;5.32;;;1.92;;
65275;SDS011;51875;49.994;14.052;2023-11-21T02:52:27;5.88;;;2.00;;
65275;SDS011;51875;49.994;14.052;2023-11-21T02:53:43;2.30;;;1.60;;
65275;SDS011;51875;49.994;14.052;2023-11-21T02:54:58;3.42;;;1.90;;
65275;SDS011;51875;49.994;14.052;2023-11-21T02:56:14;3.42;;;1.85;;
65275;SDS011;51875;49.994;14.052;2023-11-21T02:57:30;6.65;;;3.55;;
65275;SDS011;51875;49.994;14.052;2023-11-21T02:58:45;9.02;;;4.80;;
65275;SDS011;51875;49.994;14.052;2023-11-21T03:00:01;45.08;;;5.70;;
65275;SDS011;51875;49.994;14.052;2023-11-21T03:01:18;82.10;;;7.47;;
65275;SDS011;51875;49.994;14.052;2023-11-21T03:02:34;7.90;;;4.30;;
65275;SDS011;51875;49.994;14.052;2023-11-21T03:03:54;60.17;;;9.38;;
65275;SDS011;51875;49.994;14.052;2023-11-21T03:05:11;12.05;;;4.97;;
65275;SDS011;51875;49.994;14.052;2023-11-21T03:06:26;66.25;;;6.70;;
65275;SDS011;51875;49.994;14.052;2023-11-21T03:07:42;26.00;;;6.25;;
65275;SDS011;51875;49.994;14.052;2023-11-21T03:08:58;11.95;;;5.10;;
65275;SDS011;51875;49.994;14.052;2023-11-21T03:10:14;11.20;;;5.30;;
65275;SDS011;51875;49.994;14.052;2023-11-21T03:11:30;12.85;;;5.30;;
65275;SDS011;51875;49.994;14.052;2023-11-21T03:12:46;9.20;;;4.70;;
65275;SDS011;51875;49.994;14.052;2023-11-21T03:14:01;10.65;;;5.13;;
65275;SDS011;51875;49.994;14.052;2023-11-21T03:15:17;8.50;;;4.93;;
65275;SDS011;51875;49.994;14.052;2023-11-21T03:16:33;11.70;;;5.43;;
65275;SDS011;51875;49.994;14.052;2023-11-21T03:17:48;8.18;;;4.63;;
65275;SDS011;51875;49.994;14.052;2023-11-21T03:19:04;11.63;;;5.28;;
65275;SDS011;51875;49.994;14.052;2023-11-21T03:20:20;9.13;;;4.82;;
65275;SDS011;51875;49.994;14.052;2023-11-21T03:21:36;11.20;;;4.68;;
65275;SDS011;51875;49.994;14.052;2023-11-21T03:22:51;7.70;;;3.97;;
65275;SDS011;51875;49.994;14.052;2023-11-21T03:24:07;7.80;;;4.05;;
65275;SDS011;51875;49.994;14.052;2023-11-21T03:25:23;8.02;;;4.13;;
65275;SDS011;51875;49.994;14.052;2023-11-21T03:26:40;9.98;;;3.63;;
65275;SDS011;51875;49.994;14.052;2023-11-21T03:27:56;7.28;;;3.78;;
65275;SDS011;51875;49.994;14.052;2023-11-21T03:29:11;4.88;;;3.22;;
65275;SDS011;51875;49.994;14.052;2023-11-21T03:30:27;5.88;;;3.22;;
65275;SDS011;51875;49.994;14.052;2023-11-21T03:31:43;3.95;;;2.50;;
65275;SDS011;51875;49.994;14.052;2023-11-21T03:32:59;3.50;;;2.45;;
65275;SDS011;51875;49.994;14.052;2023-11-21T03:34:16;5.00;;;2.85;;
65275;SDS011;51875;49.994;14.052;2023-11-21T03:35:39;5.90;;;2.67;;
65275;SDS011;51875;49.994;14.052;2023-11-21T03:36:59;3.63;;;2.28;;
65275;SDS011;51875;49.994;14.052;2023-11-21T03:38:18;3.50;;;1.98;;
65275;SDS011;51875;49.994;14.052;2023-11-21T03:39:35;4.35;;;2.20;;
65275;SDS011;51875;49.994;14.052;2023-11-21T03:40:50;2.45;;;1.98;;
65275;SDS011;51875;49.994;14.052;2023-11-21T03:42:06;2.65;;;1.80;;
65275;SDS011;51875;49.994;14.052;2023-11-21T03:43:22;6.32;;;2.00;;
65275;SDS011;51875;49.994;14.052;2023-11-21T03:44:39;4.90;;;2.15;;
65275;SDS011;51875;49.994;14.052;2023-11-21T03:45:55;2.72;;;1.90;;
65275;SDS011;51875;49.994;14.052;2023-11-21T03:47:12;3.72;;;1.90;;
65275;SDS011;51875;49.994;14.052;2023-11-21T03:48:28;3.33;;;1.77;;
65275;SDS011;51875;49.994;14.052;2023-11-21T03:49:44;5.40;;;2.25;;
65275;SDS011;51875;49.994;14.052;2023-11-21T03:50:59;6.40;;;2.20;;
65275;SDS011;51875;49.994;14.052;2023-11-21T03:52:15;3.22;;;1.88;;
65275;SDS011;51875;49.994;14.052;2023-11-21T03:53:31;3.00;;;1.73;;
65275;SDS011;51875;49.994;14.052;2023-11-21T03:54:47;4.50;;;1.73;;
65275;SDS011;51875;49.994;14.052;2023-11-21T03:56:03;3.08;;;2.33;;
65275;SDS011;51875;49.994;14.052;2023-11-21T03:57:19;4.75;;;1.90;;
65275;SDS011;51875;49.994;14.052;2023-11-21T03:58:35;2.50;;;1.60;;
65275;SDS011;51875;49.994;14.052;2023-11-21T03:59:51;5.22;;;1.63;;
65275;SDS011;51875;49.994;14.052;2023-11-21T04:01:07;3.55;;;1.83;;
65275;SDS011;51875;49.994;14.052;2023-11-21T04:02:22;3.40;;;1.73;;
65275;SDS011;51875;49.994;14.052;2023-11-21T04:03:40;3.70;;;1.63;;
65275;SDS011;51875;49.994;14.052;2023-11-21T04:04:56;3.95;;;1.40;;
65275;SDS011;51875;49.994;14.052;2023-11-21T04:06:11;1.90;;;1.50;;
65275;SDS011;51875;49.994;14.052;2023-11-21T04:07:28;4.45;;;1.92;;
65275;SDS011;51875;49.994;14.052;2023-11-21T04:08:44;5.50;;;1.83;;
65275;SDS011;51875;49.994;14.052;2023-11-21T04:10:00;5.20;;;1.50;;
65275;SDS011;51875;49.994;14.052;2023-11-21T04:11:16;3.45;;;1.58;;
65275;SDS011;51875;49.994;14.052;2023-11-21T04:12:32;2.88;;;1.52;;
65275;SDS011;51875;49.994;14.052;2023-11-21T04:13:47;2.50;;;1.60;;
65275;SDS011;51875;49.994;14.052;2023-11-21T04:15:03;2.78;;;1.63;;
65275;SDS011;51875;49.994;14.052;2023-11-21T04:16:19;4.05;;;1.67;;
65275;SDS011;51875;49.994;14.052;2023-11-21T04:17:35;3.85;;;1.63;;
65275;SDS011;51875;49.994;14.052;2023-11-21T04:18:52;5.30;;;1.50;;
65275;SDS011;51875;49.994;14.052;2023-11-21T04:20:08;3.20;;;1.92;;
65275;SDS011;51875;49.994;14.052;2023-11-21T04:21:24;2.90;;;1.33;;
65275;SDS011;51875;49.994;14.052;2023-11-21T04:22:41;3.55;;;1.75;;
65275;SDS011;51875;49.994;14.052;2023-11-21T04:24:01;4.88;;;1.63;;
65275;SDS011;51875;49.994;14.052;2023-11-21T04:25:17;3.15;;;1.50;;
65275;SDS011;51875;49.994;14.052;2023-11-21T04:26:33;2.72;;;1.55;;
65275;SDS011;51875;49.994;14.052;2023-11-21T04:27:49;3.47;;;1.80;;
65275;SDS011;51875;49.994;14.052;2023-11-21T04:29:04;4.65;;;1.70;;
65275;SDS011;51875;49.994;14.052;2023-11-21T04:30:20;2.70;;;1.42;;
65275;SDS011;51875;49.994;14.052;2023-11-21T04:31:36;5.80;;;1.75;;
65275;SDS011;51875;49.994;14.052;2023-11-21T04:32:52;3.90;;;1.70;;
65275;SDS011;51875;49.994;14.052;2023-11-21T04:34:07;3.00;;;1.67;;
65275;SDS011;51875;49.994;14.052;2023-11-21T04:35:23;1.90;;;1.52;;
65275;SDS011;51875;49.994;14.052;2023-11-21T04:36:39;1.90;;;1.50;;
65275;SDS011;51875;49.994;14.052;2023-11-21T04:37:55;4.22;;;1.65;;
65275;SDS011;51875;49.994;14.052;2023-11-21T04:39:12;2.88;;;1.60;;
65275;SDS011;51875;49.994;14.052;2023-11-21T04:40:28;4.40;;;1.58;;
65275;SDS011;51875;49.994;14.052;2023-11-21T04:41:43;2.40;;;1.48;;
65275;SDS011;51875;49.994;14.052;2023-11-21T04:42:59;5.55;;;1.70;;
65275;SDS011;51875;49.994;14.052;2023-11-21T04:44:15;4.60;;;2.05;;
65275;SDS011;51875;49.994;14.052;2023-11-21T04:45:31;2.78;;;1.58;;
65275;SDS011;51875;49.994;14.052;2023-11-21T04:46:47;4.85;;;1.60;;
65275;SDS011;51875;49.994;14.052;2023-11-21T04:48:04;4.85;;;1.80;;
65275;SDS011;51875;49.994;14.052;2023-11-21T04:49:21;2.20;;;1.65;;
65275;SDS011;51875;49.994;14.052;2023-11-21T04:50:37;4.97;;;1.77;;
65275;SDS011;51875;49.994;14.052;2023-11-21T04:51:53;3.72;;;1.63;;
65275;SDS011;51875;49.994;14.052;2023-11-21T04:53:09;3.17;;;2.03;;
65275;SDS011;51875;49.994;14.052;2023-11-21T04:54:30;3.22;;;1.58;;
65275;SDS011;51875;49.994;14.052;2023-11-21T04:55:46;3.63;;;1.95;;
65275;SDS011;51875;49.994;14.052;2023-11-21T04:57:02;2.13;;;1.50;;
65275;SDS011;51875;49.994;14.052;2023-11-21T04:58:18;3.72;;;1.88;;
65275;SDS011;51875;49.994;14.052;2023-11-21T04:59:34;3.20;;;1.90;;
65275;SDS011;51875;49.994;14.052;2023-11-21T05:00:50;4.47;;;1.80;;
65275;SDS011;51875;49.994;14.052;2023-11-21T05:02:06;4.93;;;2.15;;
65275;SDS011;51875;49.994;14.052;2023-11-21T05:03:24;4.72;;;1.80;;
65275;SDS011;51875;49.994;14.052;2023-11-21T05:04:51;3.03;;;1.80;;
65275;SDS011;51875;49.994;14.052;2023-11-21T05:06:11;3.17;;;1.70;;
65275;SDS011;51875;49.994;14.052;2023-11-21T05:07:30;4.57;;;1.73;;
65275;SDS011;51875;49.994;14.052;2023-11-21T05:09:47;4.30;;;1.42;;
65275;SDS011;51875;49.994;14.052;2023-11-21T05:11:47;3.58;;;1.77;;
65275;SDS011;51875;49.994;14.052;2023-11-21T05:13:31;2.42;;;1.55;;
65275;SDS011;51875;49.994;14.052;2023-11-21T05:15:04;3.05;;;2.10;;
65275;SDS011;51875;49.994;14.052;2023-11-21T05:17:16;3.40;;;2.00;;
65275;SDS011;51875;49.994;14.052;2023-11-21T05:20:11;3.00;;;1.80;;
65275;SDS011;51875;49.994;14.052;2023-11-21T05:21:44;5.85;;;2.35;;
65275;SDS011;51875;49.994;14.052;2023-11-21T05:23:03;4.43;;;2.30;;
65275;SDS011;51875;49.994;14.052;2023-11-21T05:24:20;4.97;;;2.58;;
65275;SDS011;51875;49.994;14.052;2023-11-21T05:25:44;4.45;;;2.60;;
65275;SDS011;51875;49.994;14.052;2023-11-21T05:29:41;5.97;;;2.85;;
65275;SDS011;51875;49.994;14.052;2023-11-21T05:31:07;5.95;;;2.75;;
65275;SDS011;51875;49.994;14.052;2023-11-21T05:33:24;5.78;;;2.20;;
65275;SDS011;51875;49.994;14.052;2023-11-21T05:35:22;3.95;;;2.53;;
65275;SDS011;51875;49.994;14.052;2023-11-21T05:36:46;2.42;;;2.03;;
65275;SDS011;51875;49.994;14.052;2023-11-21T05:38:03;2.92;;;2.15;;
65275;SDS011;51875;49.994;14.052;2023-11-21T05:39:28;4.07;;;2.30;;
65275;SDS011;51875;49.994;14.052;2023-11-21T05:40:53;3.67;;;2.35;;
65275;SDS011;51875;49.994;14.052;2023-11-21T05:42:41;5.38;;;2.53;;
65275;SDS011;51875;49.994;14.052;2023-11-21T05:44:01;4.72;;;2.45;;
65275;SDS011;51875;49.994;14.052;2023-11-21T05:45:19;3.25;;;2.20;;
65275;SDS011;51875;49.994;14.052;2023-11-21T05:46:39;4.55;;;2.30;;
65275;SDS011;51875;49.994;14.052;2023-11-21T05:48:15;4.63;;;2.30;;
65275;SDS011;51875;49.994;14.052;2023-11-21T05:49:35;4.68;;;2.30;;
65275;SDS011;51875;49.994;14.052;2023-11-21T05:53:14;3.47;;;2.10;;
65275;SDS011;51875;49.994;14.052;2023-11-21T05:54:50;3.42;;;2.17;;
65275;SDS011;51875;49.994;14.052;2023-11-21T05:56:05;4.40;;;2.33;;
65275;SDS011;51875;49.994;14.052;2023-11-21T05:57:29;3.08;;;2.03;;
65275;SDS011;51875;49.994;14.052;2023-11-21T05:59:05;4.60;;;2.10;;
65275;SDS011;51875;49.994;14.052;2023-11-21T06:00:21;3.15;;;2.25;;
65275;SDS011;51875;49.994;14.052;2023-11-21T06:01:37;4.15;;;2.38;;
65275;SDS011;51875;49.994;14.052;2023-11-21T06:02:54;4.45;;;2.42;;
65275;SDS011;51875;49.994;14.052;2023-11-21T06:04:09;4.43;;;1.98;;
65275;SDS011;51875;49.994;14.052;2023-11-21T06:05:25;4.38;;;2.20;;
65275;SDS011;51875;49.994;14.052;2023-11-21T06:06:42;2.78;;;2.10;;
65275;SDS011;51875;49.994;14.052;2023-11-21T06:07:57;5.30;;;2.40;;
65275;SDS011;51875;49.994;14.052;2023-11-21T06:09:16;4.05;;;2.25;;
65275;SDS011;51875;49.994;14.052;2023-11-21T06:10:31;3.88;;;2.22;;
65275;SDS011;51875;49.994;14.052;2023-11-21T06:11:47;2.85;;;1.73;;
65275;SDS011;51875;49.994;14.052;2023-11-21T06:13:02;3.50;;;2.35;;
65275;SDS011;51875;49.994;14.052;2023-11-21T06:14:19;4.30;;;1.98;;
65275;SDS011;51875;49.994;14.052;2023-11-21T06:15:34;4.75;;;2.55;;
65275;SDS011;51875;49.994;14.052;2023-11-21T06:16:50;6.80;;;1.88;;
65275;SDS011;51875;49.994;14.052;2023-11-21T06:18:07;3.45;;;1.85;;
65275;SDS011;51875;49.994;14.052;2023-11-21T06:19:25;5.53;;;2.15;;
65275;SDS011;51875;49.994;14.052;2023-11-21T06:20:40;3.47;;;2.10;;
65275;SDS011;51875;49.994;14.052;2023-11-21T06:21:56;2.92;;;2.00;;
65275;SDS011;51875;49.994;14.052;2023-11-21T06:23:12;2.63;;;1.85;;
65275;SDS011;51875;49.994;14.052;2023-11-21T06:24:27;4.25;;;2.00;;
65275;SDS011;51875;49.994;14.052;2023-11-21T06:25:43;4.30;;;1.90;;
65275;SDS011;51875;49.994;14.052;2023-11-21T06:26:59;6.43;;;2.88;;
65275;SDS011;51875;49.994;14.052;2023-11-21T06:28:15;3.85;;;1.83;;
65275;SDS011;51875;49.994;14.052;2023-11-21T06:29:33;4.82;;;2.28;;
65275;SDS011;51875;49.994;14.052;2023-11-21T06:30:48;6.57;;;2.42;;
65275;SDS011;51875;49.994;14.052;2023-11-21T06:32:05;4.50;;;2.55;;
65275;SDS011;51875;49.994;14.052;2023-11-21T06:33:21;6.53;;;2.60;;
65275;SDS011;51875;49.994;14.052;2023-11-21T06:34:37;6.13;;;2.78;;
65275;SDS011;51875;49.994;14.052;2023-11-21T06:35:52;6.40;;;3.00;;
65275;SDS011;51875;49.994;14.052;2023-11-21T06:37:08;6.35;;;2.85;;
65275;SDS011;51875;49.994;14.052;2023-11-21T06:38:23;7.93;;;3.20;;
65275;SDS011;51875;49.994;14.052;2023-11-21T06:39:39;6.18;;;3.08;;
65275;SDS011;51875;49.994;14.052;2023-11-21T06:40:54;6.75;;;2.90;;
65275;SDS011;51875;49.994;14.052;2023-11-21T06:42:11;5.63;;;3.00;;
65275;SDS011;51875;49.994;14.052;2023-11-21T06:43:31;5.05;;;2.45;;
65275;SDS011;51875;49.994;14.052;2023-11-21T06:44:50;5.13;;;2.63;;
65275;SDS011;51875;49.994;14.052;2023-11-21T06:46:30;6.18;;;2.58;;
65275;SDS011;51875;49.994;14.052;2023-11-21T06:47:51;5.28;;;2.88;;
65275;SDS011;51875;49.994;14.052;2023-11-21T06:49:11;6.38;;;2.75;;
65275;SDS011;51875;49.994;14.052;2023-11-21T06:50:29;6.63;;;2.95;;
65275;SDS011;51875;49.994;14.052;2023-11-21T06:51:45;6.85;;;2.58;;
65275;SDS011;51875;49.994;14.052;2023-11-21T06:53:01;8.20;;;3.00;;
65275;SDS011;51875;49.994;14.052;2023-11-21T06:54:19;7.35;;;3.20;;
65275;SDS011;51875;49.994;14.052;2023-11-21T06:55:36;5.97;;;2.88;;
65275;SDS011;51875;49.994;14.052;2023-11-21T06:56:52;5.43;;;2.75;;
65275;SDS011;51875;49.994;14.052;2023-11-21T06:58:08;8.18;;;2.60;;
65275;SDS011;51875;49.994;14.052;2023-11-21T06:59:25;6.20;;;2.95;;
65275;SDS011;51875;49.994;14.052;2023-11-21T07:00:41;9.13;;;4.47;;
65275;SDS011;51875;49.994;14.052;2023-11-21T07:02:01;15.48;;;6.40;;
65275;SDS011;51875;49.994;14.052;2023-11-21T07:03:19;16.33;;;7.45;;
65275;SDS011;51875;49.994;14.052;2023-11-21T07:04:35;13.98;;;7.43;;
65275;SDS011;51875;49.994;14.052;2023-11-21T07:05:52;12.80;;;6.35;;
65275;SDS011;51875;49.994;14.052;2023-11-21T07:07:08;19.05;;;9.38;;
65275;SDS011;51875;49.994;14.052;2023-11-21T07:08:24;23.10;;;12.73;;
65275;SDS011;51875;49.994;14.052;2023-11-21T07:09:40;21.23;;;11.85;;
65275;SDS011;51875;49.994;14.052;2023-11-21T07:10:58;19.65;;;10.25;;
65275;SDS011;51875;49.994;14.052;2023-11-21T07:12:14;18.42;;;10.30;;
65275;SDS011;51875;49.994;14.052;2023-11-21T07:13:30;16.33;;;9.27;;
65275;SDS011;51875;49.994;14.052;2023-11-21T07:14:47;16.20;;;9.52;;
65275;SDS011;51875;49.994;14.052;2023-11-21T07:16:03;16.27;;;9.35;;
65275;SDS011;51875;49.994;14.052;2023-11-21T07:17:27;13.73;;;8.23;;
65275;SDS011;51875;49.994;14.052;2023-11-21T07:18:44;15.88;;;8.75;;
65275;SDS011;51875;49.994;14.052;2023-11-21T07:20:01;14.38;;;8.43;;
65275;SDS011;51875;49.994;14.052;2023-11-21T07:21:18;10.70;;;6.88;;
65275;SDS011;51875;49.994;14.052;2023-11-21T07:22:36;11.82;;;6.65;;
65275;SDS011;51875;49.994;14.052;2023-11-21T07:24:02;10.70;;;6.30;;
65275;SDS011;51875;49.994;14.052;2023-11-21T07:25:21;10.70;;;5.15;;
65275;SDS011;51875;49.994;14.052;2023-11-21T07:26:39;9.98;;;5.28;;
65275;SDS011;51875;49.994;14.052;2023-11-21T07:27:55;9.80;;;5.57;;
65275;SDS011;51875;49.994;14.052;2023-11-21T07:29:12;10.18;;;4.90;;
65275;SDS011;51875;49.994;14.052;2023-11-21T07:30:29;8.27;;;3.83;;
65275;SDS011;51875;49.994;14.052;2023-11-21T07:31:46;6.57;;;4.00;;
65275;SDS011;51875;49.994;14.052;2023-11-21T07:33:02;6.88;;;3.95;;
65275;SDS011;51875;49.994;14.052;2023-11-21T07:34:22;5.90;;;3.65;;
65275;SDS011;51875;49.994;14.052;2023-11-21T07:35:39;7.28;;;3.47;;
65275;SDS011;51875;49.994;14.052;2023-11-21T07:36:55;5.07;;;3.30;;
65275;SDS011;51875;49.994;14.052;2023-11-21T07:38:12;6.43;;;3.25;;
65275;SDS011;51875;49.994;14.052;2023-11-21T07:39:29;5.40;;;3.30;;
65275;SDS011;51875;49.994;14.052;2023-11-21T07:40:48;5.55;;;3.15;;
65275;SDS011;51875;49.994;14.052;2023-11-21T07:42:08;9.73;;;4.15;;
65275;SDS011;51875;49.994;14.052;2023-11-21T07:43:24;4.88;;;2.72;;
65275;SDS011;51875;49.994;14.052;2023-11-21T07:44:42;6.28;;;3.30;;
65275;SDS011;51875;49.994;14.052;2023-11-21T07:46:03;4.60;;;3.13;;
65275;SDS011;51875;49.994;14.052;2023-11-21T07:47:43;5.72;;;3.03;;
65275;SDS011;51875;49.994;14.052;2023-11-21T07:48:59;7.07;;;3.20;;